3ème Championnat Régional

Compétition Régionale

LAVAL

Le Dimanche 04 Juillet 2021

Bassin de 50m

50 Nage Libre Messieurs

Finale A

Nom Année Temps Pts Club Pays
1 MARTINS Mattéo 2002 0:24:94 1107 ANGERS NATATION FRA
2 SOULAS Alexis 2000 0:25:11 1095 NANTES NATATION FRA
3 GUERIN Jules 2005 0:25:31 1082 CN LE MANS FRA
4 JODIN Matéo 2001 0:25:42 1074 NANTES NATATION FRA
5 LANNIC Solen 2004 0:25:58 1063 STADE LAVAL FRA
6 MAILLY Noé 2002 0:25:70 1055 ANGERS NATATION FRA
7 DELHAYE Shivam 2004 0:25:77 1050 ST-NAZAIRE ATLANTIQUE NATATION FRA
8 BARTKOWSKI Benjamin 2003 0:25:99 1036 CLUB AQUATIQUE CHOLETAIS FRA

Finale B

Nom Année Temps Pts Club Pays
1 POULAIN Basile 2006 0:25:99 1036 CHALLANS NATATION FRA
2 LLEDOS Sacha 2006 0:26:00 1035 NANTES NATATION FRA
3 MAILLARD Kevin 1999 0:26:15 1025 CA EVRON FRA
4 HORTOPAN Matei-Florian 2006 0:26:15 1025 ALLONNES JEUNESSE SPORTIVE FRA
5 MARRET Auguste 2004 0:26:20 1022 LA ROCHE-SUR-YON NATATION FRA
6 DREZET Sébastien 2005 0:26:34 1012 ST-NAZAIRE ATLANTIQUE NATATION FRA
7 POTTIER Estin 2007 0:26:53 1000 CN LE MANS FRA
8 HERBULOT Rémi 2005 0:26:56 998 ANGERS NATATION FRA

Finale C

Nom Année Temps Pts Club Pays
1 TARDY Lenny 2005 0:26:18 1023 LA ROCHE-SUR-YON NATATION FRA
2 LAMISSE Raphaël 2005 0:26:47 1004 ANGERS NATATION FRA
3 DU REAU Elliott 2005 0:26:57 997 ANGERS NATATION FRA
4 BOURGOUIN Elijah 2007 0:26:75 986 ALLONNES JEUNESSE SPORTIVE FRA
5 GACHET Theo 2005 0:26:84 980 ANCENIS COURSE NATATION FRA
6 FAYS Gabin 2006 0:26:95 973 CN LE MANS FRA
7 BRUNEL Sam 2005 0:27:02 968 LA ROCHE-SUR-YON NATATION FRA
8 BORDERON Evan 2005 0:27:21 956 CLUB AQUATIQUE CHOLETAIS FRA

Séries

Nom Année Temps Pts Club Pays
1 MARTINS Mattéo 2002 0:25:13 1094 ANGERS NATATION FRA
2 GUERIN Jules 2005 0:25:34 1079 CN LE MANS FRA
3 SOULAS Alexis 2000 0:25:37 1077 NANTES NATATION FRA
4 JODIN Matéo 2001 0:25:40 1075 NANTES NATATION FRA
5 LANNIC Solen 2004 0:25:54 1066 STADE LAVAL FRA
6 MAILLY Noé 2002 0:25:59 1063 ANGERS NATATION FRA
7 DELHAYE Shivam 2004 0:25:59 1063 ST-NAZAIRE ATLANTIQUE NATATION FRA
8 BARTKOWSKI Benjamin 2003 0:25:69 1056 CLUB AQUATIQUE CHOLETAIS FRA
9 LLEDOS Sacha 2006 0:25:78 1050 NANTES NATATION FRA
10 BILLAUD Nicolas 2004 0:25:78 1050 ANGERS NATATION FRA
11 HORTOPAN Matei-Florian 2006 0:25:89 1042 ALLONNES JEUNESSE SPORTIVE FRA
12 MAILLARD Kevin 1999 0:25:91 1041 CA EVRON FRA
13 POULAIN Basile 2006 0:25:91 1041 CHALLANS NATATION FRA
14 MARRET Auguste 2004 0:25:94 1039 LA ROCHE-SUR-YON NATATION FRA
15 HERBULOT Rémi 2005 0:26:06 1031 ANGERS NATATION FRA
16 DREZET Sébastien 2005 0:26:21 1021 ST-NAZAIRE ATLANTIQUE NATATION FRA
17 POTTIER Estin 2007 0:26:26 1018 CN LE MANS FRA
18 BOHN Matthieu 2004 0:26:28 1016 NANTES NATATION FRA
19 VINES Pablo 2004 0:26:32 1014 ST-SÉBASTIEN NATATION FRA
20 GACHET Theo 2005 0:26:32 1014 ANCENIS COURSE NATATION FRA
21 DU REAU Elliott 2005 0:26:35 1012 ANGERS NATATION FRA
22 CHAUVET Basile 2004 0:26:37 1010 LA ROCHE-SUR-YON NATATION FRA
23 TARDY Lenny 2005 0:26:38 1010 LA ROCHE-SUR-YON NATATION FRA
24 LAMISSE Raphaël 2005 0:26:40 1008 ANGERS NATATION FRA
25 DELAMARRE Enzo 2003 0:26:50 1002 ST-SÉBASTIEN NATATION FRA
26 RENARD Gauthier 2000 0:26:55 999 STADE LAVAL FRA
27 FALCAO Ronan 2004 0:26:70 989 CHALLANS NATATION FRA
28 BOURGOUIN Elijah 2007 0:26:78 984 ALLONNES JEUNESSE SPORTIVE FRA
29 FAYS Gabin 2006 0:26:87 978 CN LE MANS FRA
30 MONTELEONE Thomas 2004 0:26:95 973 ST-NAZAIRE ATLANTIQUE NATATION FRA
31 BORDERON Evan 2005 0:27:00 969 CLUB AQUATIQUE CHOLETAIS FRA
32 BRUNEL Sam 2005 0:27:01 969 LA ROCHE-SUR-YON NATATION FRA
33 ANEMONE Hugo 2003 0:27:02 968 STADE LAVAL FRA
34 CLOUET Constant 2006 0:27:06 965 ANGERS NATATION FRA
35 VANDEWEGHE Clément 2005 0:27:10 963 CHALLANS NATATION FRA
36 HBA-GUILBAUD Ilyes 2005 0:27:13 961 CLUB AQUATIQUE CHOLETAIS FRA
37 DELAIN Hadrien 2004 0:27:17 958 ANGERS NATATION FRA
38 DELOGE Maxime 2004 0:27:24 954 ES SEGRÉ FRA
39 HUNAULT Eliott 2003 0:27:25 953 STADE LAVAL FRA
40 GASCOIN Sasha 2006 0:27:32 949 ANGERS NATATION FRA
41 RIPOCHE Briag 2004 0:27:38 945 ASPTT NANTES FRA
42 POIRIER Mathis 1999 0:27:38 945 CN BEAUPREAU FRA
43 HERBRETEAU Dorian 2004 0:27:40 944 LA ROCHE-SUR-YON NATATION FRA
44 CHEVET Paul 2007 0:27:43 942 CN LE MANS FRA
45 DELAUNAY Alexandre 2006 0:27:50 937 CLUB AQUATIQUE CHOLETAIS FRA
46 SORIN Alexandre 2006 0:27:54 935 AS AVRILLÉ NATATION FRA
47 DELIMESLE Martin 2006 0:27:64 928 ANGERS NATATION FRA
48 BENCHOHRA Mohamed-Aymen 2005 0:27:65 928 NANTES NATATION FRA
49 MARTINEAU-RAGUENEAU Virgile 2006 0:27:71 924 CN LUÇON FRA
50 BARREAU Victor 2005 0:27:71 924 NANTES NATATION FRA
51 LE DOEUFF Manuarii 2004 0:27:74 922 ES SEGRÉ FRA
52 FOUCHER Leo 2005 0:27:83 916 ANGERS NATATION FRA
53 RIBOUX Paul 2005 0:27:84 916 ANGERS NATATION FRA
54 DUFRESNE Simon 2006 0:27:86 915 ANGERS NATATION FRA
55 ROLAND Mathis 2005 0:27:87 914 STADE LAVAL FRA
56 TUFFIER Loic 2007 0:27:99 906 CN LE MANS FRA
57 PICOT Yaël 2005 0:28:03 904 CHALLANS NATATION FRA
58 CORNIC Jean 2006 0:28:13 898 ANGERS NATATION FRA
59 KOCH Maxime 2005 0:28:20 893 ANGERS NATATION FRA
60 LHEGU Clément 2006 0:28:22 892 LES GOÉLANDS SABLÉ-SUR-SARTHE FRA
61 DE FARIA Tom 2006 0:28:22 892 LA ROCHE-SUR-YON NATATION FRA
62 GODEL Lorenzo 2006 0:28:25 890 STADE LAVAL FRA
63 VIVIEN Mathéo 2004 0:28:31 887 ES SEGRÉ FRA
64 PAYEN Alexis 2007 0:28:43 879 LES GOÉLANDS SABLÉ-SUR-SARTHE FRA
65 NARKAOUSKY Téo 2006 0:28:78 858 ST-NAZAIRE ATLANTIQUE NATATION FRA
66 SMOLAK Esteban 2006 0:28:85 853 CLUB AQUATIQUE CHOLETAIS FRA
67 DAGUET Thomas 2006 0:29:16 835 ANGERS NATATION FRA
68 SEYEUX Lucas 2006 0:29:37 822 ES SEGRÉ FRA
69 FERRE Timéo 2007 0:29:64 806 STADE LAVAL FRA
70 AMERAND Lenny 2006 0:29:69 803 ANCENIS COURSE NATATION FRA
71 ZEBICHE Adel 2006 0:29:72 802 LA NAT'SUZERAINE FRA
72 RIPOCHE Pacôme 2006 0:30:17 775 STADE LAVAL FRA
73 GRAJA Wael 2006 0:30:21 773 CN LE MANS FRA
74 ROCHAIS Simon 2005 0:30:84 737 AS AVRILLÉ NATATION FRA
75 HAMON Augustin 2007 0:30:86 736 CN LE MANS FRA
SNAN Natation  - Water Polo